Time;durP1;ratioP1;P1;durP2;ratioP2;P2;SDS_P1;SDS_P2;PMS_P1;PMS_P2;Temp;Humidity;BMP_temperature;BMP_pressure;BME280_temperature;BME280_humidity;BME280_pressure;Samples;Min_cycle;Max_cycle;Signal;HPM_P1;HPM_P2
2021/07/10 00:01:19;;;;;;;;;16.00;16.00;;;;;20.91;54.74;101483.50;5077610;28;45710;-70
2021/07/10 00:03:44;;;;;;;;;17.00;14.75;;;;;20.91;54.85;101476.38;5077098;27;45342;-70
2021/07/10 00:06:10;;;;;;;;;16.75;12.75;;;;;20.91;55.01;101478.19;5075751;28;45346;-69
2021/07/10 00:08:35;;;;;;;;;20.75;18.50;;;;;20.88;54.92;101473.88;5077139;28;45498;-69
2021/07/10 00:11:02;;;;;;;;;20.75;16.50;;;;;20.88;54.91;101471.22;5077120;27;45424;-69
2021/07/10 00:13:28;;;;;;;;;17.50;15.50;;;;;20.87;55.01;101465.97;5077413;28;45463;-69
2021/07/10 00:15:53;;;;;;;;;21.75;18.50;;;;;20.87;54.94;101473.94;5077363;27;45412;-69
2021/07/10 00:18:19;;;;;;;;;17.50;17.50;;;;;20.87;55.02;101476.59;5076179;27;46060;-69
2021/07/10 00:20:44;;;;;;;;;21.25;18.50;;;;;20.87;55.27;101468.63;5076597;28;45473;-69
2021/07/10 00:23:10;;;;;;;;;17.75;16.00;;;;;20.86;55.39;101464.25;5076895;28;45370;-69
2021/07/10 00:25:35;;;;;;;;;19.50;17.75;;;;;20.85;55.28;101459.84;5076545;28;45601;-69
2021/07/10 00:28:01;;;;;;;;;19.50;19.00;;;;;20.84;55.29;101451.03;5076694;27;46210;-69
2021/07/10 00:30:27;;;;;;;;;17.25;15.00;;;;;20.85;55.53;101446.53;5075808;27;45387;-69
2021/07/10 00:32:53;;;;;;;;;20.50;19.25;;;;;20.85;55.55;101449.22;5076290;27;45415;-70
2021/07/10 00:35:19;;;;;;;;;25.75;22.50;;;;;20.84;55.42;101459.00;5076850;27;45298;-69
2021/07/10 00:37:44;;;;;;;;;23.00;21.00;;;;;20.85;55.29;101443.88;5076440;28;46703;-70
2021/07/10 00:40:11;;;;;;;;;15.75;15.25;;;;;20.85;55.32;101443.88;5077061;28;45378;-69
2021/07/10 00:42:37;;;;;;;;;17.75;16.25;;;;;20.83;55.23;101441.28;5076294;27;45303;-69
2021/07/10 00:45:05;;;;;;;;;18.50;17.00;;;;;20.79;55.62;101431.78;5071669;28;45401;-69
2021/07/10 00:47:30;;;;;;;;;14.00;14.00;;;;;20.76;55.73;101427.47;5065209;28;46549;-70
2021/07/10 00:49:56;;;;;;;;;15.50;13.00;;;;;20.74;55.98;101433.81;5076110;27;45324;-69
2021/07/10 00:52:21;;;;;;;;;16.25;15.50;;;;;20.73;56.35;101440.91;5076688;28;45331;-69
2021/07/10 00:54:47;;;;;;;;;17.00;14.50;;;;;20.71;56.15;101433.94;5076982;27;45314;-69
2021/07/10 00:57:12;;;;;;;;;17.75;16.00;;;;;20.68;56.27;101428.81;5074614;28;45919;-69
2021/07/10 00:59:40;;;;;;;;;17.50;16.75;;;;;20.67;56.32;101427.09;5076357;28;45488;-70
2021/07/10 01:02:05;;;;;;;;;20.50;18.25;;;;;20.65;56.89;101416.53;5075938;27;45413;-69
2021/07/10 01:04:31;;;;;;;;;19.50;18.25;;;;;20.66;56.94;101420.03;5076079;28;45428;-69
2021/07/10 01:06:56;;;;;;;;;16.50;15.50;;;;;20.65;56.85;101421.00;5076519;27;45737;-69
2021/07/10 01:09:21;;;;;;;;;23.75;17.00;;;;;20.68;56.83;101415.50;5076016;27;45515;-69
2021/07/10 01:11:47;;;;;;;;;23.25;19.25;;;;;20.71;56.80;101410.00;5075971;27;45523;-70
2021/07/10 01:14:12;;;;;;;;;23.50;23.50;;;;;20.71;57.04;101402.03;5074573;28;45485;-70
2021/07/10 01:16:38;;;;;;;;;22.00;20.00;;;;;20.71;56.74;101405.56;5075513;27;46225;-69
2021/07/10 01:19:04;;;;;;;;;19.75;19.25;;;;;20.74;56.81;101400.09;5076583;27;45304;-70
2021/07/10 01:21:29;;;;;;;;;15.00;15.00;;;;;20.74;56.90;101394.75;5076233;28;45388;-70
2021/07/10 01:23:54;;;;;;;;;20.50;17.00;;;;;20.76;56.63;101392.00;5076103;28;45479;-69
2021/07/10 01:26:20;;;;;;;;;20.00;19.00;;;;;20.77;57.04;101388.41;5075784;27;50503;-70
2021/07/10 01:28:46;;;;;;;;;21.50;19.25;;;;;20.76;56.59;101381.34;5076044;28;45557;-70
2021/07/10 01:31:13;;;;;;;;;21.75;19.25;;;;;20.75;56.84;101377.84;5076327;28;45394;-69
2021/07/10 01:33:39;;;;;;;;;16.25;14.75;;;;;20.74;56.05;101376.13;5075672;27;45628;-70
2021/07/10 01:36:05;;;;;;;;;20.50;18.25;;;;;20.75;56.29;101371.66;5075605;27;46301;-69
2021/07/10 01:38:30;;;;;;;;;11.00;10.75;;;;;20.75;54.94;101371.66;5075617;28;45251;-68
2021/07/10 01:40:56;;;;;;;;;13.00;13.00;;;;;20.75;54.51;101364.53;5072377;28;45548;-69
2021/07/10 01:43:22;;;;;;;;;12.75;9.75;;;;;20.76;54.40;101360.97;5075739;27;45531;-69
2021/07/10 01:45:47;;;;;;;;;11.75;11.75;;;;;20.78;53.69;101359.09;5075393;28;46301;-69
2021/07/10 01:48:13;;;;;;;;;10.75;10.75;;;;;20.79;53.39;101350.16;5074850;28;45395;-69
2021/07/10 01:50:41;;;;;;;;;16.50;15.75;;;;;20.81;54.32;101342.09;5075056;27;45447;-70
2021/07/10 01:53:07;;;;;;;;;20.00;17.00;;;;;20.80;55.48;101337.69;5075382;27;45403;-70
2021/07/10 01:55:32;;;;;;;;;16.00;13.50;;;;;20.79;55.08;101336.84;5075180;28;45472;-70
2021/07/10 01:57:59;;;;;;;;;19.50;13.50;;;;;20.81;54.61;101339.44;5075360;27;45498;-70
2021/07/10 02:00:28;;;;;;;;;11.50;11.50;;;;;20.83;54.13;101334.84;5074956;27;45470;-70
2021/07/10 02:02:55;;;;;;;;;14.00;13.75;;;;;20.84;54.65;101339.25;5074844;27;45382;-70
2021/07/10 02:05:22;;;;;;;;;12.00;11.25;;;;;20.86;53.86;101337.38;5074900;27;46169;-70
2021/07/10 02:07:49;;;;;;;;;11.25;8.75;;;;;20.85;53.23;101329.47;5058931;28;45275;-70
2021/07/10 02:10:16;;;;;;;;;12.75;11.00;;;;;20.86;53.35;101331.19;5071428;28;45428;-70
2021/07/10 02:12:46;;;;;;;;;10.25;8.50;;;;;20.86;53.15;101326.72;5075011;28;45444;-70
2021/07/10 02:15:13;;;;;;;;;11.25;9.75;;;;;20.87;52.87;101320.44;5073285;28;46588;-70
2021/07/10 02:17:39;;;;;;;;;11.50;9.25;;;;;20.87;53.04;101322.25;5074530;28;45458;-70
2021/07/10 02:20:08;;;;;;;;;11.00;10.00;;;;;20.87;52.72;101316.94;5075270;27;45426;-70
2021/07/10 02:22:34;;;;;;;;;11.25;7.75;;;;;20.88;52.52;101316.88;5075152;28;45373;-70
2021/07/10 02:25:00;;;;;;;;;11.50;11.00;;;;;20.90;52.43;101319.41;5075670;27;45461;-70
2021/07/10 02:27:26;;;;;;;;;9.50;9.00;;;;;20.88;52.41;101310.66;5074574;27;45493;-70
2021/07/10 02:29:52;;;;;;;;;7.50;7.50;;;;;20.88;52.45;101311.53;5074235;27;45385;-70
2021/07/10 02:32:17;;;;;;;;;10.75;10.00;;;;;20.85;52.51;101318.81;5074748;27;45409;-70
2021/07/10 02:34:42;;;;;;;;;11.00;9.50;;;;;20.84;52.62;101314.44;5074749;28;46006;-70
2021/07/10 02:37:08;;;;;;;;;9.25;7.75;;;;;20.85;52.69;101319.66;5075650;27;45386;-70
2021/07/10 02:39:33;;;;;;;;;11.00;11.00;;;;;20.84;52.58;101311.78;5074998;27;46783;-68
2021/07/10 02:41:58;;;;;;;;;7.00;7.00;;;;;20.81;52.49;101302.19;5074744;28;45326;-69
2021/07/10 02:44:24;;;;;;;;;12.25;10.25;;;;;20.82;52.61;101311.88;5074259;28;46682;-69
2021/07/10 02:46:49;;;;;;;;;10.00;8.00;;;;;20.82;52.32;101309.19;5074697;28;45754;-69
2021/07/10 02:49:15;;;;;;;;;7.75;7.00;;;;;20.78;52.52;101300.53;5075364;28;45301;-69
2021/07/10 02:51:40;;;;;;;;;11.50;8.75;;;;;20.75;52.59;101300.69;5074208;27;45521;-70
2021/07/10 02:54:06;;;;;;;;;9.25;6.75;;;;;20.72;52.84;101295.53;5074020;27;45932;-69
2021/07/10 02:56:32;;;;;;;;;11.00;8.25;;;;;20.70;52.74;101293.91;5074560;28;45566;-69
2021/07/10 02:58:57;;;;;;;;;8.00;7.00;;;;;20.67;52.58;101288.75;5073930;27;45352;-70
2021/07/10 03:01:22;;;;;;;;;11.50;9.25;;;;;20.64;53.02;101286.25;5074747;28;45472;-70
2021/07/10 03:03:48;;;;;;;;;11.75;11.75;;;;;20.62;52.73;101281.03;5074340;27;45375;-72
2021/07/10 03:06:14;;;;;;;;;10.00;10.00;;;;;20.58;52.95;101284.78;5073643;27;45500;-70
2021/07/10 03:08:39;;;;;;;;;8.25;8.25;;;;;20.52;52.94;101279.75;5073939;27;45216;-69
2021/07/10 03:11:06;;;;;;;;;8.50;7.25;;;;;20.48;52.99;101279.06;5073723;27;45500;-70
2021/07/10 03:13:32;;;;;;;;;8.00;8.00;;;;;20.43;53.19;101269.63;5073843;28;45408;-70
2021/07/10 03:15:57;;;;;;;;;9.75;8.00;;;;;20.39;53.11;101273.38;5074533;27;45387;-70
2021/07/10 03:18:23;;;;;;;;;11.00;9.75;;;;;20.32;53.71;101267.50;5073385;27;45542;-69
2021/07/10 03:20:48;;;;;;;;;12.25;11.25;;;;;20.29;53.92;101268.53;5074344;27;45463;-69
2021/07/10 03:23:13;;;;;;;;;11.25;8.00;;;;;20.29;53.78;101262.38;5070853;28;48616;-70
2021/07/10 03:25:41;;;;;;;;;11.25;10.25;;;;;20.27;53.88;101261.56;5073687;28;45400;-69
2021/07/10 03:28:07;;;;;;;;;11.00;9.25;;;;;20.21;53.81;101267.19;5074392;27;45350;-70
2021/07/10 03:30:33;;;;;;;;;11.25;7.50;;;;;20.18;53.92;101264.72;5073764;27;45481;-70
2021/07/10 03:32:59;;;;;;;;;13.00;12.25;;;;;20.17;54.42;101265.66;5073959;27;46183;-70
2021/07/10 03:35:24;;;;;;;;;9.00;8.25;;;;;20.14;53.92;101264.00;5074361;28;45389;-70
2021/07/10 03:37:51;;;;;;;;;10.75;8.00;;;;;20.16;54.54;101264.78;5074300;27;45386;-70
2021/07/10 03:40:22;;;;;;;;;8.75;8.75;;;;;20.14;54.33;101261.34;5075103;28;45351;-70
2021/07/10 03:42:48;;;;;;;;;11.00;11.00;;;;;20.12;54.26;101260.59;5073410;27;45472;-70
2021/07/10 03:45:15;;;;;;;;;9.00;9.00;;;;;20.09;54.94;101256.28;5074237;27;45574;-70
2021/07/10 03:47:41;;;;;;;;;7.75;7.75;;;;;20.09;54.97;101253.63;5074025;27;45286;-70
2021/07/10 03:50:10;;;;;;;;;8.75;7.25;;;;;20.10;54.83;101259.81;5074057;27;45586;-70
2021/07/10 03:52:35;;;;;;;;;10.50;10.50;;;;;20.09;55.05;101261.59;5074073;28;45564;-70
2021/07/10 03:55:02;;;;;;;;;11.00;11.00;;;;;20.08;54.93;101259.03;5074082;27;45562;-70
2021/07/10 03:57:28;;;;;;;;;9.25;8.50;;;;;20.08;55.32;101264.34;5073890;27;45457;-70
2021/07/10 03:59:53;;;;;;;;;11.75;10.50;;;;;20.07;55.20;101255.50;5073908;27;45479;-70
2021/07/10 04:02:19;;;;;;;;;9.50;9.50;;;;;20.06;55.13;101261.75;5073746;27;46431;-69
2021/07/10 04:04:44;;;;;;;;;11.25;11.25;;;;;20.07;54.98;101262.59;5074657;28;45410;-71
2021/07/10 04:07:09;;;;;;;;;12.50;10.75;;;;;20.09;55.45;101266.03;5078010;27;45366;-70
2021/07/10 04:09:35;;;;;;;;;13.50;11.75;;;;;20.09;55.47;101255.41;5076467;27;45414;-70
2021/07/10 04:12:00;;;;;;;;;9.75;8.25;;;;;20.11;55.56;101254.38;5076763;28;48389;-70
2021/07/10 04:14:26;;;;;;;;;12.25;12.00;;;;;20.12;55.48;101255.28;5076686;27;45462;-71
2021/07/10 04:16:52;;;;;;;;;9.00;8.75;;;;;20.13;55.19;101257.81;5076874;27;45306;-71
2021/07/10 04:19:17;;;;;;;;;11.00;11.00;;;;;20.17;55.66;101257.69;5077914;28;45395;-70
2021/07/10 04:21:42;;;;;;;;;10.50;9.50;;;;;20.20;55.62;101263.69;5076392;27;46617;-71
2021/07/10 04:24:08;;;;;;;;;10.75;10.25;;;;;20.21;55.21;101257.41;5076039;27;45214;-71
2021/07/10 04:26:33;;;;;;;;;13.25;12.50;;;;;20.20;55.13;101258.38;5076639;28;45601;-71
2021/07/10 04:28:58;;;;;;;;;11.00;10.50;;;;;20.19;55.21;101263.75;5076565;27;45462;-71
2021/07/10 04:31:24;;;;;;;;;11.75;10.75;;;;;20.16;55.15;101259.47;5076998;28;46407;-71
2021/07/10 04:33:49;;;;;;;;;12.00;12.00;;;;;20.11;55.56;101250.88;5076991;27;45351;-70
2021/07/10 04:36:14;;;;;;;;;10.50;9.00;;;;;20.08;55.67;101248.38;5076635;27;45464;-70
2021/07/10 04:38:40;;;;;;;;;11.25;9.00;;;;;20.04;55.63;101247.66;5075848;27;45588;-70
2021/07/10 04:41:06;;;;;;;;;8.25;8.25;;;;;20.06;55.92;101250.25;5076206;27;45498;-70
2021/07/10 04:43:33;;;;;;;;;9.25;6.00;;;;;20.07;56.54;101250.19;5076288;28;47315;-70
2021/07/10 04:45:59;;;;;;;;;10.75;9.75;;;;;20.06;56.38;101248.47;5077185;28;45307;-70
2021/07/10 04:48:25;;;;;;;;;10.50;10.25;;;;;20.06;55.98;101258.22;5076055;27;45405;-70
2021/07/10 04:50:50;;;;;;;;;9.75;9.75;;;;;20.06;56.27;101256.44;5076242;27;46538;-71
2021/07/10 04:53:16;;;;;;;;;11.00;10.25;;;;;20.07;56.34;101259.94;5075765;28;45344;-70
2021/07/10 04:55:42;;;;;;;;;10.00;8.25;;;;;20.08;56.71;101265.19;5076273;28;45275;-71
2021/07/10 04:58:07;;;;;;;;;11.25;11.25;;;;;20.10;56.47;101259.81;5076595;27;45680;-70
2021/07/10 05:00:33;;;;;;;;;9.75;9.75;;;;;20.12;56.50;101255.28;5075514;27;46060;-70
2021/07/10 05:02:58;;;;;;;;;10.50;10.00;;;;;20.15;56.57;101265.72;5075724;28;45441;-71
2021/07/10 05:05:23;;;;;;;;;13.50;11.25;;;;;20.18;56.50;101262.91;5076389;27;45402;-70
2021/07/10 05:07:49;;;;;;;;;13.25;12.25;;;;;20.22;56.41;101263.63;5075218;27;45315;-70
2021/07/10 05:10:15;;;;;;;;;8.00;8.00;;;;;20.26;56.51;101267.81;5076375;27;46715;-69
2021/07/10 05:12:40;;;;;;;;;7.50;7.50;;;;;20.31;56.29;101265.81;5072533;27;45755;-71
2021/07/10 05:15:06;;;;;;;;;7.00;7.00;;;;;20.30;56.16;101275.56;5070381;28;45507;-70
2021/07/10 05:17:32;;;;;;;;;10.00;10.00;;;;;20.29;56.37;101268.53;5068720;28;45543;-71
2021/07/10 05:19:57;;;;;;;;;7.75;7.75;;;;;20.30;56.32;101275.56;5068169;27;46140;-72
2021/07/10 05:22:22;;;;;;;;;10.50;8.00;;;;;20.27;56.01;101267.75;5066665;27;45484;-72
2021/07/10 05:24:48;;;;;;;;;10.00;9.50;;;;;20.23;56.07;101273.31;5074443;27;45491;-71
2021/07/10 05:27:13;;;;;;;;;8.50;8.50;;;;;20.17;56.50;101263.88;5073146;28;45440;-71
2021/07/10 05:29:39;;;;;;;;;9.00;7.75;;;;;20.18;56.50;101272.69;5075522;27;45487;-71
2021/07/10 05:32:04;;;;;;;;;9.00;7.75;;;;;20.20;56.88;101269.00;5075746;28;45453;-70
2021/07/10 05:34:30;;;;;;;;;9.00;5.50;;;;;20.22;56.96;101266.28;5075578;28;45378;-71
2021/07/10 05:36:55;;;;;;;;;7.75;6.00;;;;;20.22;56.66;101260.97;5075549;27;45497;-71
2021/07/10 05:39:21;;;;;;;;;12.50;9.75;;;;;20.24;57.30;101269.72;5075123;27;46253;-70
2021/07/10 05:41:47;;;;;;;;;11.00;9.75;;;;;20.26;57.42;101271.38;5074733;27;45822;-71
2021/07/10 05:44:12;;;;;;;;;11.75;10.00;;;;;20.31;57.18;101260.50;5074971;27;45350;-70
2021/07/10 05:46:38;;;;;;;;;10.00;9.00;;;;;20.38;56.87;101253.91;5075307;28;45287;-71
2021/07/10 05:49:03;;;;;;;;;10.00;10.00;;;;;20.45;56.93;101255.28;5075736;27;46182;-72
2021/07/10 05:51:29;;;;;;;;;8.25;7.25;;;;;20.51;57.10;101251.44;5074710;27;45303;-71
2021/07/10 05:53:54;;;;;;;;;10.75;9.50;;;;;20.55;57.10;101256.53;5075114;27;46612;-71
2021/07/10 05:56:19;;;;;;;;;11.50;8.50;;;;;20.60;56.79;101248.31;5074953;27;45355;-72
2021/07/10 05:58:45;;;;;;;;;14.00;10.00;;;;;20.66;56.80;101252.44;5074536;28;46185;-71
2021/07/10 06:01:11;;;;;;;;;13.50;13.25;;;;;20.72;57.06;101245.00;5075647;27;45403;-71
2021/07/10 06:03:36;;;;;;;;;12.25;10.25;;;;;20.78;57.22;101243.78;5074994;27;45519;-70
2021/07/10 06:06:01;;;;;;;;;10.75;9.00;;;;;20.87;56.91;101245.09;5074562;27;45598;-71
2021/07/10 06:08:27;;;;;;;;;12.00;9.75;;;;;20.97;56.83;101241.84;5073866;27;46533;-71
2021/07/10 06:10:53;;;;;;;;;11.00;9.25;;;;;21.10;56.82;101246.47;5062701;28;45473;-70
2021/07/10 06:13:19;;;;;;;;;13.50;13.25;;;;;21.23;56.46;101238.66;5074766;28;45394;-70
2021/07/10 06:15:44;;;;;;;;;14.75;14.75;;;;;21.37;56.34;101242.22;5067817;28;45649;-71
2021/07/10 06:18:10;;;;;;;;;11.75;11.75;;;;;21.52;56.24;101239.66;5073833;27;45516;-70
2021/07/10 06:20:37;;;;;;;;;10.00;10.00;;;;;21.57;55.91;101235.78;5073583;27;45450;-71
2021/07/10 06:23:05;;;;;;;;;12.75;10.75;;;;;21.67;55.44;101232.59;5074107;27;45345;-68
2021/07/10 06:25:32;;;;;;;;;10.25;9.75;;;;;21.76;55.49;101229.34;5074533;28;45236;-71
2021/07/10 06:27:58;;;;;;;;;15.25;11.25;;;;;21.87;55.22;101231.41;5073540;27;45656;-73
2021/07/10 06:30:24;;;;;;;;;13.00;8.50;;;;;21.93;55.08;101239.00;5067930;27;45543;-64
2021/07/10 06:32:49;;;;;;;;;14.25;12.00;;;;;21.92;54.86;101242.66;5062878;28;45494;-67
2021/07/10 06:35:15;;;;;;;;;13.33;10.67;;;;;21.87;54.70;101232.25;5063174;28;45579;-68
2021/07/10 06:37:41;;;;;;;;;10.33;8.00;;;;;21.82;54.79;101232.53;5068297;27;45343;-69
2021/07/10 06:40:08;;;;;;;;;10.75;9.75;;;;;21.72;54.57;101227.84;5063167;27;45422;-69
2021/07/10 06:42:34;;;;;;;;;16.50;14.00;;;;;21.66;55.06;101226.38;5065769;27;45463;-69
2021/07/10 06:44:59;;;;;;;;;11.00;8.33;;;;;21.62;54.99;101228.38;5071163;27;45204;-68
2021/07/10 06:47:24;;;;;;;;;11.50;11.50;;;;;21.63;55.34;101223.91;5074270;27;46451;-68
2021/07/10 06:49:50;;;;;;;;;10.00;10.00;;;;;21.71;55.00;101229.63;5067470;28;45791;-68
2021/07/10 06:52:15;;;;;;;;;13.75;10.00;;;;;21.79;54.88;101224.72;5074189;27;45390;-69
2021/07/10 06:54:41;;;;;;;;;16.00;13.00;;;;;21.90;54.58;101224.06;5073805;28;45392;-70
2021/07/10 06:57:06;;;;;;;;;11.75;11.50;;;;;22.03;54.38;101217.06;5073479;27;46425;-68
2021/07/10 06:59:32;;;;;;;;;11.00;9.00;;;;;22.15;53.96;101219.94;5074208;27;45359;-69
2021/07/10 07:01:57;;;;;;;;;9.67;8.67;;;;;22.21;53.58;101214.25;5074157;27;45337;-69
2021/07/10 07:04:23;;;;;;;;;8.00;8.00;;;;;22.28;53.24;101212.91;5073544;28;45441;-69
2021/07/10 07:06:48;;;;;;;;;10.75;10.00;;;;;22.27;53.23;101212.06;5074071;27;45716;-69
2021/07/10 07:09:13;;;;;;;;;13.50;12.00;;;;;22.30;53.26;101208.34;5073516;27;45556;-69
2021/07/10 07:11:39;;;;;;;;;13.00;10.00;;;;;22.33;52.43;101215.28;5073840;27;45378;-69
2021/07/10 07:14:05;;;;;;;;;8.00;7.00;;;;;22.31;52.46;101218.06;5073824;27;45397;-69
2021/07/10 07:16:32;;;;;;;;;12.67;9.33;;;;;22.34;52.31;101217.88;5073470;28;46421;-70
2021/07/10 07:18:58;;;;;;;;;7.33;7.33;;;;;22.40;52.36;101213.97;5073353;27;45468;-69
2021/07/10 07:21:24;;;;;;;;;10.67;8.33;;;;;22.47;52.20;101215.28;5073813;27;45422;-68
2021/07/10 07:23:50;;;;;;;;;6.67;6.67;;;;;22.50;52.08;101209.78;5073942;28;45625;-68
2021/07/10 07:26:18;;;;;;;;;9.00;6.00;;;;;22.45;51.45;101206.53;5073203;27;45507;-69
2021/07/10 07:28:44;;;;;;;;;10.33;9.33;;;;;22.42;52.07;101210.25;5072793;27;45388;-69
2021/07/10 07:31:09;;;;;;;;;10.33;8.33;;;;;22.42;52.32;101206.72;5074278;27;45469;-69
2021/07/10 07:33:34;;;;;;;;;13.00;10.75;;;;;22.41;52.39;101205.03;5070054;27;45466;-70
2021/07/10 07:36:00;;;;;;;;;14.67;11.67;;;;;22.43;52.31;101205.78;5072736;27;46569;-66
2021/07/10 07:38:25;;;;;;;;;10.33;9.33;;;;;22.50;52.62;101198.22;5072605;28;45421;-68
2021/07/10 07:40:51;;;;;;;;;9.00;8.50;;;;;22.56;53.26;101197.84;5076530;28;45367;-68
2021/07/10 07:43:16;;;;;;;;;10.50;9.50;;;;;22.59;52.26;101201.16;5076044;28;45335;-67
2021/07/10 07:45:41;;;;;;;;;13.75;10.00;;;;;22.61;52.50;101201.94;5069817;27;45449;-68
2021/07/10 07:48:07;;;;;;;;;19.25;14.25;;;;;22.63;52.63;101197.38;5067931;28;45530;-69
2021/07/10 07:50:32;;;;;;;;;11.00;8.75;;;;;22.63;52.44;101196.50;5067638;28;45571;-69
2021/07/10 07:52:58;;;;;;;;;8.50;8.00;;;;;22.61;52.06;101188.59;5069686;27;45523;-68
2021/07/10 07:55:23;;;;;;;;;7.50;7.50;;;;;22.61;52.38;101187.75;5066330;27;45710;-69
2021/07/10 07:57:49;;;;;;;;;8.25;8.25;;;;;22.58;51.76;101193.28;5071105;27;45342;-68
2021/07/10 08:00:19;;;;;;;;;13.50;10.75;;;;;22.58;51.98;101191.47;5068924;27;45305;-68
2021/07/10 08:02:46;;;;;;;;;5.75;5.00;;;;;22.60;51.67;101192.22;5075757;27;45521;-68
2021/07/10 08:05:11;;;;;;;;;16.50;14.50;;;;;22.63;51.91;101192.03;5073367;27;45417;-67
2021/07/10 08:07:37;;;;;;;;;10.50;10.50;;;;;22.71;51.85;101196.88;5073904;28;45445;-68
2021/07/10 08:10:04;;;;;;;;;16.25;13.75;;;;;22.80;50.97;101187.44;5076394;27;45370;-68
2021/07/10 08:12:30;;;;;;;;;8.75;8.75;;;;;22.94;50.93;101190.06;5071340;27;45441;-69
2021/07/10 08:14:55;;;;;;;;;14.50;13.00;;;;;23.13;51.11;101191.56;5075456;27;45836;-68
2021/07/10 08:17:20;;;;;;;;;6.00;5.00;;;;;23.29;50.18;101186.94;5071558;27;45442;-70
2021/07/10 08:19:46;;;;;;;;;12.25;9.25;;;;;23.40;50.03;101183.53;5069540;28;45436;-68
2021/07/10 08:22:11;;;;;;;;;9.75;9.75;;;;;23.38;50.11;101182.75;5066765;27;45619;-67
2021/07/10 08:24:37;;;;;;;;;16.00;7.75;;;;;23.34;49.83;101192.81;5066024;28;46156;-67
2021/07/10 08:27:03;;;;;;;;;10.50;10.50;;;;;23.29;49.99;101185.09;5070707;27;45788;-67
2021/07/10 08:29:28;;;;;;;;;11.50;9.00;;;;;23.31;49.68;101185.88;5068588;28;45554;-67
2021/07/10 08:31:54;;;;;;;;;8.00;7.00;;;;;23.35;49.05;101177.63;5068515;28;45462;-68
2021/07/10 08:34:19;;;;;;;;;9.50;9.50;;;;;23.37;48.61;101173.91;5076243;28;45374;-68
2021/07/10 08:36:44;;;;;;;;;13.00;10.75;;;;;23.34;48.17;101176.78;5075098;27;45393;-68
2021/07/10 08:39:10;;;;;;;;;9.00;7.25;;;;;23.28;48.40;101175.34;5074143;28;47576;-68
2021/07/10 08:41:36;;;;;;;;;8.25;8.25;;;;;23.29;48.21;101169.06;5075840;28;45470;-67
2021/07/10 08:44:03;;;;;;;;;6.75;6.75;;;;;23.37;48.32;101170.38;5076011;28;45575;-68
2021/07/10 08:46:28;;;;;;;;;17.25;15.00;;;;;23.42;47.84;101168.25;5075824;28;45331;-68
2021/07/10 08:48:56;;;;;;;;;13.25;13.25;;;;;23.41;47.69;101171.91;5075940;27;45342;-68
2021/07/10 08:51:21;;;;;;;;;11.00;11.00;;;;;23.38;46.98;101177.41;5074684;27;45371;-71
2021/07/10 08:53:47;;;;;;;;;13.00;9.25;;;;;23.31;47.33;101177.84;5075600;27;45390;-68
2021/07/10 08:56:12;;;;;;;;;13.75;10.00;;;;;23.26;47.18;101171.06;5073068;28;45580;-67
2021/07/10 08:58:38;;;;;;;;;14.50;12.50;;;;;23.20;47.32;101184.88;5073176;28;45374;-69
2021/07/10 09:01:08;;;;;;;;;15.50;10.00;;;;;23.10;47.53;101185.47;5075590;27;45512;-71
2021/07/10 09:03:34;;;;;;;;;13.75;9.75;;;;;23.07;47.72;101182.13;5074504;27;45583;-67
2021/07/10 09:05:59;;;;;;;;;5.25;5.00;;;;;23.08;47.85;101189.19;5074834;27;45441;-67
2021/07/10 09:08:30;;;;;;;;;7.00;7.00;;;;;23.03;47.97;101189.50;5075186;27;45299;-67
2021/07/10 09:11:01;;;;;;;;;8.50;8.50;;;;;22.91;47.96;101195.59;5075617;28;45752;-68
2021/07/10 09:13:38;;;;;;;;;9.25;7.25;;;;;22.84;48.24;101189.81;5075266;28;45534;-70
2021/07/10 09:16:13;;;;;;;;;9.25;7.25;;;;;22.80;48.26;101203.44;5074763;27;45314;-69
2021/07/10 09:18:40;;;;;;;;;5.75;5.50;;;;;22.83;48.71;101205.91;5075011;27;45759;-68
2021/07/10 09:21:06;;;;;;;;;6.75;6.75;;;;;22.74;48.37;101212.72;5075136;28;45320;-68
2021/07/10 09:23:44;;;;;;;;;4.67;4.67;;;;;22.59;48.18;101211.84;5075240;27;46518;-69
2021/07/10 09:26:25;;;;;;;;;3.33;3.00;;;;;22.46;47.22;101208.25;5075249;28;45407;-69
2021/07/10 09:29:04;;;;;;;;;4.00;3.00;;;;;22.32;47.64;101210.94;5058622;28;45392;-69
2021/07/10 09:31:34;;;;;;;;;3.00;3.00;;;;;22.08;47.85;101210.59;5072014;28;45416;-68
2021/07/10 09:34:06;;;;;;;;;4.25;4.25;;;;;21.85;47.97;101207.50;5075049;27;46327;-69
2021/07/10 09:36:32;;;;;;;;;4.00;3.00;;;;;21.66;48.60;101197.06;5072909;28;45553;-68
2021/07/10 09:38:57;;;;;;;;;5.67;3.33;;;;;21.56;48.75;101188.78;5074491;28;45500;-68
2021/07/10 09:41:31;;;;;;;;;2.33;2.33;;;;;21.46;48.76;101178.78;5075099;28;45414;-69
2021/07/10 09:44:09;;;;;;;;;3.67;3.67;;;;;21.32;49.47;101185.72;5059661;28;46482;-70
2021/07/10 09:46:35;;;;;;;;;5.75;5.00;;;;;21.28;50.16;101180.66;5075314;27;45305;-69
2021/07/10 09:49:31;;;;;;;;;4.50;4.00;;;;;21.31;50.07;101172.47;5075769;27;45394;-69
2021/07/10 09:52:20;;;;;;;;;6.00;5.00;;;;;21.40;50.29;101174.63;5075088;28;45579;-69
2021/07/10 09:54:50;;;;;;;;;5.00;4.00;;;;;21.51;49.76;101169.53;5074537;28;50510;-69
2021/07/10 09:57:27;;;;;;;;;2.67;2.67;;;;;21.65;49.75;101162.56;5074654;27;45321;-69
2021/07/10 09:59:59;;;;;;;;;4.25;4.00;;;;;21.78;50.46;101161.69;5074611;27;45294;-69
2021/07/10 10:02:29;;;;;;;;;5.00;4.75;;;;;21.95;49.90;101168.69;5072008;28;45539;-69
2021/07/10 10:05:07;;;;;;;;;3.00;3.00;;;;;22.10;49.46;101166.03;5068900;28;45389;-69
2021/07/10 10:07:51;;;;;;;;;4.67;2.00;;;;;22.17;48.79;101170.03;5074739;28;45717;-68
2021/07/10 10:10:31;;;;;;;;;3.00;3.00;;;;;22.21;48.82;101167.09;5055772;28;45328;-70
2021/07/10 10:13:09;;;;;;;;;4.33;3.00;;;;;22.24;49.04;101168.75;5075294;28;45472;-69
2021/07/10 10:15:36;;;;;;;;;4.50;4.00;;;;;22.29;48.79;101165.78;5074785;28;46429;-70
2021/07/10 10:18:01;;;;;;;;;5.00;5.00;;;;;22.28;48.69;101151.56;5075418;27;45485;-69
2021/07/10 10:20:28;;;;;;;;;3.75;3.75;;;;;22.39;49.28;101149.09;5075214;28;45401;-67
2021/07/10 10:22:54;;;;;;;;;3.00;3.00;;;;;22.46;49.16;101155.75;5074961;27;45367;-68
2021/07/10 10:25:20;;;;;;;;;3.33;2.00;;;;;22.43;48.67;101155.94;5075690;28;45367;-68
2021/07/10 10:27:49;;;;;;;;;4.00;4.00;;;;;22.41;48.21;101155.19;5074347;28;45655;-68
2021/07/10 10:30:17;;;;;;;;;5.00;5.00;;;;;22.44;48.54;101165.66;5074744;27;45414;-69
2021/07/10 10:32:43;;;;;;;;;5.25;4.00;;;;;22.45;48.65;101167.38;5074857;27;45548;-70
2021/07/10 10:35:09;;;;;;;;;5.00;5.00;;;;;22.40;48.66;101173.94;5074016;27;45383;-68
2021/07/10 10:37:36;;;;;;;;;3.75;3.75;;;;;22.36;48.41;101165.28;5074755;28;45358;-68
2021/07/10 10:40:06;;;;;;;;;3.00;3.00;;;;;22.36;48.38;101154.63;5075361;27;45350;-68
2021/07/10 10:42:32;;;;;;;;;6.75;4.25;;;;;22.45;48.79;101163.84;5074444;27;45494;-69
2021/07/10 10:45:00;;;;;;;;;3.00;3.00;;;;;22.57;48.37;101159.53;5074776;27;45922;-68
2021/07/10 10:47:51;;;;;;;;;5.00;5.00;;;;;22.72;48.60;101155.06;5069562;28;45436;-69
2021/07/10 10:50:23;;;;;;;;;6.00;5.00;;;;;22.83;47.90;101155.19;5074309;28;45292;-67
2021/07/10 10:52:49;;;;;;;;;4.00;3.67;;;;;22.95;48.53;101151.72;5074459;28;45573;-68
2021/07/10 10:55:35;;;;;;;;;4.00;4.00;;;;;23.04;47.45;101144.94;5075203;27;45551;-70
2021/07/10 10:58:16;;;;;;;;;2.00;2.00;;;;;23.06;46.88;101146.56;5073041;28;45405;-69
2021/07/10 11:00:44;;;;;;;;;3.25;3.25;;;;;22.99;47.14;101147.91;5072354;28;45485;-68
2021/07/10 11:03:14;;;;;;;;;5.00;5.00;;;;;22.96;47.19;101149.91;5073687;28;45560;-68
2021/07/10 11:05:54;;;;;;;;;3.67;3.67;;;;;23.01;47.80;101146.00;5073033;28;45436;-66
2021/07/10 11:08:26;;;;;;;;;2.33;2.33;;;;;23.19;47.27;101143.06;5073676;28;45508;-68
2021/07/10 11:10:56;;;;;;;;;6.50;6.00;;;;;23.34;46.56;101147.41;5057321;28;45433;-67
2021/07/10 11:13:28;;;;;;;;;6.00;6.00;;;;;23.54;46.65;101146.03;5070991;28;45369;-65
2021/07/10 11:16:07;;;;;;;;;4.00;4.00;;;;;23.84;45.36;101144.94;5078042;28;46272;-66